sensor_id;sensor_type;location;lat;lon;timestamp;temperature;humidity
7530;DHT22;3806;52.270;10.544;2022-08-19T00:00:23;23.40;99.90
7530;DHT22;3806;52.270;10.544;2022-08-19T00:02:49;23.50;99.90
7530;DHT22;3806;52.270;10.544;2022-08-19T00:05:15;23.40;99.90
7530;DHT22;3806;52.270;10.544;2022-08-19T00:07:42;23.40;99.90
7530;DHT22;3806;52.270;10.544;2022-08-19T00:10:10;23.40;99.90
7530;DHT22;3806;52.270;10.544;2022-08-19T00:12:37;23.40;99.90
7530;DHT22;3806;52.270;10.544;2022-08-19T00:15:05;23.40;99.90
7530;DHT22;3806;52.270;10.544;2022-08-19T00:17:31;23.40;99.90
7530;DHT22;3806;52.270;10.544;2022-08-19T00:19:57;23.40;99.90
7530;DHT22;3806;52.270;10.544;2022-08-19T00:22:22;23.40;99.90
7530;DHT22;3806;52.270;10.544;2022-08-19T00:24:48;23.40;99.90
7530;DHT22;3806;52.270;10.544;2022-08-19T00:27:14;23.40;99.90
7530;DHT22;3806;52.270;10.544;2022-08-19T00:29:40;23.30;99.90
7530;DHT22;3806;52.270;10.544;2022-08-19T00:32:06;23.30;99.90
7530;DHT22;3806;52.270;10.544;2022-08-19T00:34:31;23.30;99.90
7530;DHT22;3806;52.270;10.544;2022-08-19T00:36:57;23.30;99.90
7530;DHT22;3806;52.270;10.544;2022-08-19T00:39:25;23.30;99.90
7530;DHT22;3806;52.270;10.544;2022-08-19T00:41:51;23.30;99.90
7530;DHT22;3806;52.270;10.544;2022-08-19T00:44:20;23.20;99.90
7530;DHT22;3806;52.270;10.544;2022-08-19T00:46:48;23.20;99.90
7530;DHT22;3806;52.270;10.544;2022-08-19T00:49:15;23.20;99.90
7530;DHT22;3806;52.270;10.544;2022-08-19T00:51:44;23.20;99.90
7530;DHT22;3806;52.270;10.544;2022-08-19T00:54:11;23.20;99.90
7530;DHT22;3806;52.270;10.544;2022-08-19T00:56:37;23.20;99.90
7530;DHT22;3806;52.270;10.544;2022-08-19T00:59:04;23.20;99.90
7530;DHT22;3806;52.270;10.544;2022-08-19T01:01:39;23.10;99.90
7530;DHT22;3806;52.270;10.544;2022-08-19T01:04:05;23.10;99.90
7530;DHT22;3806;52.270;10.544;2022-08-19T01:06:31;23.10;99.90
7530;DHT22;3806;52.270;10.544;2022-08-19T01:08:59;23.10;99.90
7530;DHT22;3806;52.270;10.544;2022-08-19T01:11:26;23.00;99.90
7530;DHT22;3806;52.270;10.544;2022-08-19T01:13:53;23.00;99.90
7530;DHT22;3806;52.270;10.544;2022-08-19T01:16:22;23.00;99.90
7530;DHT22;3806;52.270;10.544;2022-08-19T01:18:49;23.00;99.90
7530;DHT22;3806;52.270;10.544;2022-08-19T01:23:46;23.00;99.90
7530;DHT22;3806;52.270;10.544;2022-08-19T01:26:17;23.00;99.90
7530;DHT22;3806;52.270;10.544;2022-08-19T01:28:47;23.00;99.90
7530;DHT22;3806;52.270;10.544;2022-08-19T01:31:21;23.00;99.90
7530;DHT22;3806;52.270;10.544;2022-08-19T01:33:49;22.90;99.90
7530;DHT22;3806;52.270;10.544;2022-08-19T01:36:24;22.90;99.90
7530;DHT22;3806;52.270;10.544;2022-08-19T01:38:51;22.90;99.90
7530;DHT22;3806;52.270;10.544;2022-08-19T01:41:17;22.90;99.90
7530;DHT22;3806;52.270;10.544;2022-08-19T01:43:44;22.90;99.90
7530;DHT22;3806;52.270;10.544;2022-08-19T01:46:10;22.90;99.90
7530;DHT22;3806;52.270;10.544;2022-08-19T01:48:39;22.90;99.90
7530;DHT22;3806;52.270;10.544;2022-08-19T01:51:06;22.90;99.90
7530;DHT22;3806;52.270;10.544;2022-08-19T01:53:33;22.80;99.90
7530;DHT22;3806;52.270;10.544;2022-08-19T01:55:59;22.80;99.90
7530;DHT22;3806;52.270;10.544;2022-08-19T01:58:34;22.80;99.90
7530;DHT22;3806;52.270;10.544;2022-08-19T02:01:03;22.80;99.90
7530;DHT22;3806;52.270;10.544;2022-08-19T02:03:28;22.80;99.90
7530;DHT22;3806;52.270;10.544;2022-08-19T02:05:59;22.80;99.90
7530;DHT22;3806;52.270;10.544;2022-08-19T02:08:26;22.80;99.90
7530;DHT22;3806;52.270;10.544;2022-08-19T02:10:52;22.70;99.90
7530;DHT22;3806;52.270;10.544;2022-08-19T02:13:18;22.70;99.90
7530;DHT22;3806;52.270;10.544;2022-08-19T02:15:44;22.70;99.90
7530;DHT22;3806;52.270;10.544;2022-08-19T02:18:10;22.70;99.90
7530;DHT22;3806;52.270;10.544;2022-08-19T02:20:37;22.70;99.90
7530;DHT22;3806;52.270;10.544;2022-08-19T02:23:04;22.60;99.90
7530;DHT22;3806;52.270;10.544;2022-08-19T02:25:29;22.70;99.90
7530;DHT22;3806;52.270;10.544;2022-08-19T02:27:55;22.60;99.90
7530;DHT22;3806;52.270;10.544;2022-08-19T02:30:21;22.60;99.90
7530;DHT22;3806;52.270;10.544;2022-08-19T02:32:47;22.60;99.90
7530;DHT22;3806;52.270;10.544;2022-08-19T02:35:14;22.60;99.90
7530;DHT22;3806;52.270;10.544;2022-08-19T02:37:41;22.60;99.90
7530;DHT22;3806;52.270;10.544;2022-08-19T02:40:27;22.50;99.90
7530;DHT22;3806;52.270;10.544;2022-08-19T02:42:52;22.50;99.90
7530;DHT22;3806;52.270;10.544;2022-08-19T02:45:18;22.50;99.90
7530;DHT22;3806;52.270;10.544;2022-08-19T02:47:44;22.50;99.90
7530;DHT22;3806;52.270;10.544;2022-08-19T02:50:09;22.50;99.90
7530;DHT22;3806;52.270;10.544;2022-08-19T02:52:35;22.50;99.90
7530;DHT22;3806;52.270;10.544;2022-08-19T02:55:01;22.40;99.90
7530;DHT22;3806;52.270;10.544;2022-08-19T02:57:27;22.40;99.90
7530;DHT22;3806;52.270;10.544;2022-08-19T02:59:53;22.40;99.90
7530;DHT22;3806;52.270;10.544;2022-08-19T03:02:18;22.40;99.90
7530;DHT22;3806;52.270;10.544;2022-08-19T03:04:44;22.40;99.90
7530;DHT22;3806;52.270;10.544;2022-08-19T03:07:13;22.40;99.90
7530;DHT22;3806;52.270;10.544;2022-08-19T03:09:39;22.40;99.90
7530;DHT22;3806;52.270;10.544;2022-08-19T03:12:05;22.30;99.90
7530;DHT22;3806;52.270;10.544;2022-08-19T03:14:32;22.30;99.90
7530;DHT22;3806;52.270;10.544;2022-08-19T03:16:58;22.30;99.90
7530;DHT22;3806;52.270;10.544;2022-08-19T03:19:23;22.30;99.90
7530;DHT22;3806;52.270;10.544;2022-08-19T03:21:50;22.30;99.90
7530;DHT22;3806;52.270;10.544;2022-08-19T03:24:16;22.30;99.90
7530;DHT22;3806;52.270;10.544;2022-08-19T03:26:45;22.30;99.90
7530;DHT22;3806;52.270;10.544;2022-08-19T03:29:11;22.20;99.90
7530;DHT22;3806;52.270;10.544;2022-08-19T03:31:39;22.20;99.90
7530;DHT22;3806;52.270;10.544;2022-08-19T03:34:04;22.20;99.90
7530;DHT22;3806;52.270;10.544;2022-08-19T03:36:30;22.10;99.90
7530;DHT22;3806;52.270;10.544;2022-08-19T03:38:58;22.10;99.90
7530;DHT22;3806;52.270;10.544;2022-08-19T03:41:28;22.10;99.90
7530;DHT22;3806;52.270;10.544;2022-08-19T03:43:54;22.10;99.90
7530;DHT22;3806;52.270;10.544;2022-08-19T03:46:28;22.10;99.90
7530;DHT22;3806;52.270;10.544;2022-08-19T03:48:56;22.10;99.90
7530;DHT22;3806;52.270;10.544;2022-08-19T03:51:30;22.10;99.90
7530;DHT22;3806;52.270;10.544;2022-08-19T03:53:57;22.10;99.90
7530;DHT22;3806;52.270;10.544;2022-08-19T03:56:23;22.10;99.90
7530;DHT22;3806;52.270;10.544;2022-08-19T03:58:51;22.00;99.90
7530;DHT22;3806;52.270;10.544;2022-08-19T04:01:19;22.00;99.90
7530;DHT22;3806;52.270;10.544;2022-08-19T04:03:46;22.00;99.90
7530;DHT22;3806;52.270;10.544;2022-08-19T04:06:22;22.00;99.90
7530;DHT22;3806;52.270;10.544;2022-08-19T04:08:49;22.00;99.90
7530;DHT22;3806;52.270;10.544;2022-08-19T04:11:18;22.00;99.90
7530;DHT22;3806;52.270;10.544;2022-08-19T04:13:45;22.00;99.90
7530;DHT22;3806;52.270;10.544;2022-08-19T04:16:11;22.00;99.90
7530;DHT22;3806;52.270;10.544;2022-08-19T04:18:38;21.90;99.90
7530;DHT22;3806;52.270;10.544;2022-08-19T04:21:05;21.90;99.90
7530;DHT22;3806;52.270;10.544;2022-08-19T04:23:32;21.90;99.90
7530;DHT22;3806;52.270;10.544;2022-08-19T04:25:58;21.90;99.90
7530;DHT22;3806;52.270;10.544;2022-08-19T04:28:24;21.90;99.90
7530;DHT22;3806;52.270;10.544;2022-08-19T04:30:52;21.90;99.90
7530;DHT22;3806;52.270;10.544;2022-08-19T04:33:21;21.90;99.90
7530;DHT22;3806;52.270;10.544;2022-08-19T04:35:49;21.90;99.90
7530;DHT22;3806;52.270;10.544;2022-08-19T04:38:16;21.80;99.90
7530;DHT22;3806;52.270;10.544;2022-08-19T04:40:44;21.80;99.90
7530;DHT22;3806;52.270;10.544;2022-08-19T04:43:29;21.80;99.90
7530;DHT22;3806;52.270;10.544;2022-08-19T04:45:55;21.80;99.90
7530;DHT22;3806;52.270;10.544;2022-08-19T04:48:21;21.70;99.90
7530;DHT22;3806;52.270;10.544;2022-08-19T04:50:53;21.70;99.90
7530;DHT22;3806;52.270;10.544;2022-08-19T04:53:24;21.70;99.90
7530;DHT22;3806;52.270;10.544;2022-08-19T04:55:49;21.70;99.90
7530;DHT22;3806;52.270;10.544;2022-08-19T04:58:15;21.60;99.90
7530;DHT22;3806;52.270;10.544;2022-08-19T05:00:41;21.60;99.90
7530;DHT22;3806;52.270;10.544;2022-08-19T05:03:07;21.60;99.90
7530;DHT22;3806;52.270;10.544;2022-08-19T05:05:33;21.60;99.90
7530;DHT22;3806;52.270;10.544;2022-08-19T05:08:03;21.60;99.90
7530;DHT22;3806;52.270;10.544;2022-08-19T05:10:29;21.60;99.90
7530;DHT22;3806;52.270;10.544;2022-08-19T05:12:56;21.60;99.90
7530;DHT22;3806;52.270;10.544;2022-08-19T05:15:22;21.60;99.90
7530;DHT22;3806;52.270;10.544;2022-08-19T05:17:48;21.60;99.90
7530;DHT22;3806;52.270;10.544;2022-08-19T05:20:33;21.60;99.90
7530;DHT22;3806;52.270;10.544;2022-08-19T05:23:17;21.60;99.90
7530;DHT22;3806;52.270;10.544;2022-08-19T05:25:43;21.60;99.90
7530;DHT22;3806;52.270;10.544;2022-08-19T05:28:09;21.60;99.90
7530;DHT22;3806;52.270;10.544;2022-08-19T05:30:35;21.60;99.90
7530;DHT22;3806;52.270;10.544;2022-08-19T05:33:00;21.60;99.90
7530;DHT22;3806;52.270;10.544;2022-08-19T05:35:26;21.60;99.90
7530;DHT22;3806;52.270;10.544;2022-08-19T05:37:53;21.60;99.90
7530;DHT22;3806;52.270;10.544;2022-08-19T05:40:19;21.60;99.90
7530;DHT22;3806;52.270;10.544;2022-08-19T05:42:45;21.60;99.90
7530;DHT22;3806;52.270;10.544;2022-08-19T05:45:11;21.60;99.90
7530;DHT22;3806;52.270;10.544;2022-08-19T05:47:36;21.70;99.90
7530;DHT22;3806;52.270;10.544;2022-08-19T05:50:03;21.70;99.90
7530;DHT22;3806;52.270;10.544;2022-08-19T05:52:29;21.70;99.90
7530;DHT22;3806;52.270;10.544;2022-08-19T05:54:55;21.70;99.90
7530;DHT22;3806;52.270;10.544;2022-08-19T05:57:21;21.70;99.90
7530;DHT22;3806;52.270;10.544;2022-08-19T05:59:46;21.70;99.90
7530;DHT22;3806;52.270;10.544;2022-08-19T06:02:13;21.70;99.90
7530;DHT22;3806;52.270;10.544;2022-08-19T06:04:39;21.70;99.90
7530;DHT22;3806;52.270;10.544;2022-08-19T06:07:08;21.70;99.90
7530;DHT22;3806;52.270;10.544;2022-08-19T06:09:34;21.70;99.90
7530;DHT22;3806;52.270;10.544;2022-08-19T06:12:00;21.70;99.90
7530;DHT22;3806;52.270;10.544;2022-08-19T06:14:30;21.70;99.90
7530;DHT22;3806;52.270;10.544;2022-08-19T06:16:57;21.70;99.90
7530;DHT22;3806;52.270;10.544;2022-08-19T06:19:27;21.70;99.90
7530;DHT22;3806;52.270;10.544;2022-08-19T06:21:56;21.70;99.90
7530;DHT22;3806;52.270;10.544;2022-08-19T06:24:24;21.70;99.90
7530;DHT22;3806;52.270;10.544;2022-08-19T06:26:51;21.70;99.90
7530;DHT22;3806;52.270;10.544;2022-08-19T06:29:20;21.70;99.90
7530;DHT22;3806;52.270;10.544;2022-08-19T06:31:50;21.70;99.90
7530;DHT22;3806;52.270;10.544;2022-08-19T06:34:17;21.70;99.90
7530;DHT22;3806;52.270;10.544;2022-08-19T06:36:50;21.70;99.90
7530;DHT22;3806;52.270;10.544;2022-08-19T06:39:21;21.70;99.90
7530;DHT22;3806;52.270;10.544;2022-08-19T06:41:49;21.70;99.90
7530;DHT22;3806;52.270;10.544;2022-08-19T06:44:16;21.70;99.90
7530;DHT22;3806;52.270;10.544;2022-08-19T06:46:42;21.70;99.90
7530;DHT22;3806;52.270;10.544;2022-08-19T06:49:08;21.70;99.90
7530;DHT22;3806;52.270;10.544;2022-08-19T06:51:40;21.70;99.90
7530;DHT22;3806;52.270;10.544;2022-08-19T06:54:06;21.70;99.90
7530;DHT22;3806;52.270;10.544;2022-08-19T06:56:32;21.70;99.90
7530;DHT22;3806;52.270;10.544;2022-08-19T06:59:03;21.80;99.90
7530;DHT22;3806;52.270;10.544;2022-08-19T07:01:28;21.70;99.90
7530;DHT22;3806;52.270;10.544;2022-08-19T07:03:54;21.80;99.90
7530;DHT22;3806;52.270;10.544;2022-08-19T07:06:20;21.70;99.90
7530;DHT22;3806;52.270;10.544;2022-08-19T07:08:47;21.70;99.90
7530;DHT22;3806;52.270;10.544;2022-08-19T07:11:15;21.70;99.90
7530;DHT22;3806;52.270;10.544;2022-08-19T07:13:42;21.60;99.90
7530;DHT22;3806;52.270;10.544;2022-08-19T07:16:12;21.60;99.90
7530;DHT22;3806;52.270;10.544;2022-08-19T07:18:39;21.60;99.90
7530;DHT22;3806;52.270;10.544;2022-08-19T07:21:08;21.60;99.90
7530;DHT22;3806;52.270;10.544;2022-08-19T07:23:34;21.60;99.90
7530;DHT22;3806;52.270;10.544;2022-08-19T07:26:16;21.60;99.90
7530;DHT22;3806;52.270;10.544;2022-08-19T07:28:42;21.60;99.90
7530;DHT22;3806;52.270;10.544;2022-08-19T07:31:12;21.60;99.90
7530;DHT22;3806;52.270;10.544;2022-08-19T07:33:39;21.60;99.90
7530;DHT22;3806;52.270;10.544;2022-08-19T07:36:07;21.60;99.90
7530;DHT22;3806;52.270;10.544;2022-08-19T07:38:35;21.60;99.90
7530;DHT22;3806;52.270;10.544;2022-08-19T07:41:01;21.60;99.90
7530;DHT22;3806;52.270;10.544;2022-08-19T07:43:27;21.60;99.90
7530;DHT22;3806;52.270;10.544;2022-08-19T07:45:54;21.60;99.90
7530;DHT22;3806;52.270;10.544;2022-08-19T07:48:31;21.60;99.90
7530;DHT22;3806;52.270;10.544;2022-08-19T07:51:01;21.60;99.90
7530;DHT22;3806;52.270;10.544;2022-08-19T07:53:30;21.60;99.90
7530;DHT22;3806;52.270;10.544;2022-08-19T07:55:56;21.60;99.90
7530;DHT22;3806;52.270;10.544;2022-08-19T07:58:25;21.60;99.90
7530;DHT22;3806;52.270;10.544;2022-08-19T08:00:51;21.60;99.90
7530;DHT22;3806;52.270;10.544;2022-08-19T08:03:18;21.60;99.90
7530;DHT22;3806;52.270;10.544;2022-08-19T08:05:45;21.50;99.90
7530;DHT22;3806;52.270;10.544;2022-08-19T08:08:30;21.60;99.90
7530;DHT22;3806;52.270;10.544;2022-08-19T08:11:03;21.60;99.90
7530;DHT22;3806;52.270;10.544;2022-08-19T08:13:29;21.60;99.90
7530;DHT22;3806;52.270;10.544;2022-08-19T08:15:56;21.60;99.90
7530;DHT22;3806;52.270;10.544;2022-08-19T08:18:25;21.60;99.90
7530;DHT22;3806;52.270;10.544;2022-08-19T08:20:51;21.70;99.90
7530;DHT22;3806;52.270;10.544;2022-08-19T08:23:16;21.70;99.90
7530;DHT22;3806;52.270;10.544;2022-08-19T08:25:50;21.70;99.90
7530;DHT22;3806;52.270;10.544;2022-08-19T08:28:17;21.80;99.90
7530;DHT22;3806;52.270;10.544;2022-08-19T08:30:44;21.80;99.90
7530;DHT22;3806;52.270;10.544;2022-08-19T08:33:11;21.80;99.90
7530;DHT22;3806;52.270;10.544;2022-08-19T08:35:40;21.90;99.90
7530;DHT22;3806;52.270;10.544;2022-08-19T08:38:07;21.90;99.90
7530;DHT22;3806;52.270;10.544;2022-08-19T08:40:46;22.00;99.90
7530;DHT22;3806;52.270;10.544;2022-08-19T08:43:30;22.00;99.90
7530;DHT22;3806;52.270;10.544;2022-08-19T08:46:07;22.00;99.90
7530;DHT22;3806;52.270;10.544;2022-08-19T08:54:23;22.20;99.90
7530;DHT22;3806;52.270;10.544;2022-08-19T08:56:51;22.20;99.70
7530;DHT22;3806;52.270;10.544;2022-08-19T08:59:22;22.30;99.70
7530;DHT22;3806;52.270;10.544;2022-08-19T09:01:49;22.30;99.50
7530;DHT22;3806;52.270;10.544;2022-08-19T09:04:15;22.40;99.40
7530;DHT22;3806;52.270;10.544;2022-08-19T09:06:55;22.40;99.30
7530;DHT22;3806;52.270;10.544;2022-08-19T09:09:37;22.50;99.00
7530;DHT22;3806;52.270;10.544;2022-08-19T09:12:30;22.60;98.90
7530;DHT22;3806;52.270;10.544;2022-08-19T09:15:08;22.70;98.60
7530;DHT22;3806;52.270;10.544;2022-08-19T09:17:35;22.80;98.20
7530;DHT22;3806;52.270;10.544;2022-08-19T09:20:14;22.90;97.90
7530;DHT22;3806;52.270;10.544;2022-08-19T09:22:42;23.00;97.60
7530;DHT22;3806;52.270;10.544;2022-08-19T09:25:16;23.00;97.40
7530;DHT22;3806;52.270;10.544;2022-08-19T09:27:42;23.00;97.30
7530;DHT22;3806;52.270;10.544;2022-08-19T09:30:19;23.00;97.00
7530;DHT22;3806;52.270;10.544;2022-08-19T09:32:46;23.00;96.90
7530;DHT22;3806;52.270;10.544;2022-08-19T09:35:13;23.00;96.70
7530;DHT22;3806;52.270;10.544;2022-08-19T09:37:40;22.90;96.80
7530;DHT22;3806;52.270;10.544;2022-08-19T09:40:06;22.90;96.90
7530;DHT22;3806;52.270;10.544;2022-08-19T09:42:32;22.90;96.70
7530;DHT22;3806;52.270;10.544;2022-08-19T09:44:59;22.90;96.70
7530;DHT22;3806;52.270;10.544;2022-08-19T09:47:24;22.80;96.60
7530;DHT22;3806;52.270;10.544;2022-08-19T09:49:50;22.80;96.70
7530;DHT22;3806;52.270;10.544;2022-08-19T09:52:16;22.70;96.60
7530;DHT22;3806;52.270;10.544;2022-08-19T09:54:43;22.70;96.60
7530;DHT22;3806;52.270;10.544;2022-08-19T09:57:09;22.70;96.70
7530;DHT22;3806;52.270;10.544;2022-08-19T09:59:34;22.70;97.00
7530;DHT22;3806;52.270;10.544;2022-08-19T10:02:00;22.80;96.80
7530;DHT22;3806;52.270;10.544;2022-08-19T10:04:26;22.80;96.70
7530;DHT22;3806;52.270;10.544;2022-08-19T10:07:11;22.80;96.60
7530;DHT22;3806;52.270;10.544;2022-08-19T10:09:37;22.70;96.50
7530;DHT22;3806;52.270;10.544;2022-08-19T10:12:04;22.80;96.50
7530;DHT22;3806;52.270;10.544;2022-08-19T10:14:30;22.80;96.50
7530;DHT22;3806;52.270;10.544;2022-08-19T10:16:56;22.90;96.60
7530;DHT22;3806;52.270;10.544;2022-08-19T10:19:22;22.90;96.50
7530;DHT22;3806;52.270;10.544;2022-08-19T10:21:48;22.90;96.50
7530;DHT22;3806;52.270;10.544;2022-08-19T10:24:13;23.00;96.50
7530;DHT22;3806;52.270;10.544;2022-08-19T10:26:40;23.00;96.50
7530;DHT22;3806;52.270;10.544;2022-08-19T10:29:12;23.10;96.40
7530;DHT22;3806;52.270;10.544;2022-08-19T10:31:41;23.10;96.20
7530;DHT22;3806;52.270;10.544;2022-08-19T10:34:07;23.20;96.00
7530;DHT22;3806;52.270;10.544;2022-08-19T10:36:35;23.30;96.00
7530;DHT22;3806;52.270;10.544;2022-08-19T10:39:05;23.50;95.80
7530;DHT22;3806;52.270;10.544;2022-08-19T10:41:33;23.60;95.50
7530;DHT22;3806;52.270;10.544;2022-08-19T10:44:01;23.60;95.30
7530;DHT22;3806;52.270;10.544;2022-08-19T10:46:28;23.70;95.10
7530;DHT22;3806;52.270;10.544;2022-08-19T10:48:58;23.70;94.90
7530;DHT22;3806;52.270;10.544;2022-08-19T10:51:24;23.80;94.80
7530;DHT22;3806;52.270;10.544;2022-08-19T10:54:09;23.80;94.60
7530;DHT22;3806;52.270;10.544;2022-08-19T10:56:35;23.90;94.60
7530;DHT22;3806;52.270;10.544;2022-08-19T10:59:28;24.00;94.50
7530;DHT22;3806;52.270;10.544;2022-08-19T11:01:59;24.10;94.30
7530;DHT22;3806;52.270;10.544;2022-08-19T11:04:26;24.30;94.00
7530;DHT22;3806;52.270;10.544;2022-08-19T11:06:52;24.40;93.80
7530;DHT22;3806;52.270;10.544;2022-08-19T11:09:21;24.60;93.60
7530;DHT22;3806;52.270;10.544;2022-08-19T11:11:52;24.70;93.20
7530;DHT22;3806;52.270;10.544;2022-08-19T11:14:19;24.80;92.80
7530;DHT22;3806;52.270;10.544;2022-08-19T11:16:46;24.90;92.60
7530;DHT22;3806;52.270;10.544;2022-08-19T11:19:12;25.00;92.40
7530;DHT22;3806;52.270;10.544;2022-08-19T11:21:41;25.00;92.30
7530;DHT22;3806;52.270;10.544;2022-08-19T11:24:10;25.00;92.30
7530;DHT22;3806;52.270;10.544;2022-08-19T11:26:38;25.00;92.10
7530;DHT22;3806;52.270;10.544;2022-08-19T11:29:05;25.10;91.80
7530;DHT22;3806;52.270;10.544;2022-08-19T11:31:33;25.20;91.60
7530;DHT22;3806;52.270;10.544;2022-08-19T11:34:03;25.30;91.50
7530;DHT22;3806;52.270;10.544;2022-08-19T11:36:29;25.40;91.30
7530;DHT22;3806;52.270;10.544;2022-08-19T11:38:56;25.40;91.00
7530;DHT22;3806;52.270;10.544;2022-08-19T11:41:23;25.50;90.90
7530;DHT22;3806;52.270;10.544;2022-08-19T11:43:50;25.50;90.70
7530;DHT22;3806;52.270;10.544;2022-08-19T11:46:18;25.60;90.50
7530;DHT22;3806;52.270;10.544;2022-08-19T11:48:44;25.60;90.40
7530;DHT22;3806;52.270;10.544;2022-08-19T11:51:16;25.80;90.40
7530;DHT22;3806;52.270;10.544;2022-08-19T11:53:43;26.10;90.20
7530;DHT22;3806;52.270;10.544;2022-08-19T11:56:09;26.40;89.60
7530;DHT22;3806;52.270;10.544;2022-08-19T11:58:35;26.70;88.50
7530;DHT22;3806;52.270;10.544;2022-08-19T12:01:05;26.90;87.40
7530;DHT22;3806;52.270;10.544;2022-08-19T12:03:32;27.10;86.30
7530;DHT22;3806;52.270;10.544;2022-08-19T12:05:57;27.30;85.10
7530;DHT22;3806;52.270;10.544;2022-08-19T12:08:23;27.50;84.50
7530;DHT22;3806;52.270;10.544;2022-08-19T12:10:48;27.80;83.50
7530;DHT22;3806;52.270;10.544;2022-08-19T12:13:14;28.10;82.00
7530;DHT22;3806;52.270;10.544;2022-08-19T12:15:44;28.30;81.60
7530;DHT22;3806;52.270;10.544;2022-08-19T12:18:10;28.60;80.00
7530;DHT22;3806;52.270;10.544;2022-08-19T12:20:38;28.80;77.60
7530;DHT22;3806;52.270;10.544;2022-08-19T12:23:06;28.90;75.90
7530;DHT22;3806;52.270;10.544;2022-08-19T12:25:32;29.00;75.20
7530;DHT22;3806;52.270;10.544;2022-08-19T12:27:58;29.10;74.70
7530;DHT22;3806;52.270;10.544;2022-08-19T12:30:24;29.20;73.80
7530;DHT22;3806;52.270;10.544;2022-08-19T12:32:50;29.20;72.90
7530;DHT22;3806;52.270;10.544;2022-08-19T12:35:17;29.30;71.80
7530;DHT22;3806;52.270;10.544;2022-08-19T12:37:46;29.50;71.40
7530;DHT22;3806;52.270;10.544;2022-08-19T12:40:13;29.60;70.80
7530;DHT22;3806;52.270;10.544;2022-08-19T12:42:40;29.80;69.50
7530;DHT22;3806;52.270;10.544;2022-08-19T12:45:09;30.00;69.00
7530;DHT22;3806;52.270;10.544;2022-08-19T12:47:35;30.10;68.40
7530;DHT22;3806;52.270;10.544;2022-08-19T12:50:01;30.10;67.40
7530;DHT22;3806;52.270;10.544;2022-08-19T12:52:27;30.10;66.70
7530;DHT22;3806;52.270;10.544;2022-08-19T12:54:54;30.10;66.10
7530;DHT22;3806;52.270;10.544;2022-08-19T12:57:22;30.20;65.50
7530;DHT22;3806;52.270;10.544;2022-08-19T12:59:52;30.30;65.20
7530;DHT22;3806;52.270;10.544;2022-08-19T13:02:19;30.30;65.00
7530;DHT22;3806;52.270;10.544;2022-08-19T13:04:45;30.10;64.70
7530;DHT22;3806;52.270;10.544;2022-08-19T13:07:11;30.00;64.70
7530;DHT22;3806;52.270;10.544;2022-08-19T13:09:36;29.90;64.90
7530;DHT22;3806;52.270;10.544;2022-08-19T13:12:03;29.90;65.30
7530;DHT22;3806;52.270;10.544;2022-08-19T13:14:33;29.90;66.20
7530;DHT22;3806;52.270;10.544;2022-08-19T13:16:59;29.90;64.70
7530;DHT22;3806;52.270;10.544;2022-08-19T13:19:24;29.80;64.50
7530;DHT22;3806;52.270;10.544;2022-08-19T13:21:50;29.80;64.70
7530;DHT22;3806;52.270;10.544;2022-08-19T13:24:17;29.70;64.80
7530;DHT22;3806;52.270;10.544;2022-08-19T13:26:42;29.70;64.80
7530;DHT22;3806;52.270;10.544;2022-08-19T13:29:08;29.60;65.10
7530;DHT22;3806;52.270;10.544;2022-08-19T13:31:53;29.60;65.60
7530;DHT22;3806;52.270;10.544;2022-08-19T13:34:37;29.60;65.80
7530;DHT22;3806;52.270;10.544;2022-08-19T13:37:03;29.60;65.70
7530;DHT22;3806;52.270;10.544;2022-08-19T13:39:34;29.60;65.00
7530;DHT22;3806;52.270;10.544;2022-08-19T13:42:01;29.60;65.10
7530;DHT22;3806;52.270;10.544;2022-08-19T13:44:28;29.50;65.00
7530;DHT22;3806;52.270;10.544;2022-08-19T13:47:01;29.30;65.10
7530;DHT22;3806;52.270;10.544;2022-08-19T13:49:31;29.30;65.50
7530;DHT22;3806;52.270;10.544;2022-08-19T13:51:57;29.30;65.60
7530;DHT22;3806;52.270;10.544;2022-08-19T13:54:23;29.30;66.00
7530;DHT22;3806;52.270;10.544;2022-08-19T13:56:48;29.30;66.20
7530;DHT22;3806;52.270;10.544;2022-08-19T13:59:14;29.40;66.70
7530;DHT22;3806;52.270;10.544;2022-08-19T14:01:40;29.40;66.50
7530;DHT22;3806;52.270;10.544;2022-08-19T14:04:07;29.40;66.30
7530;DHT22;3806;52.270;10.544;2022-08-19T14:06:33;29.40;65.90
7530;DHT22;3806;52.270;10.544;2022-08-19T14:08:59;29.30;65.60
7530;DHT22;3806;52.270;10.544;2022-08-19T14:11:24;29.20;65.70
7530;DHT22;3806;52.270;10.544;2022-08-19T14:13:50;29.10;65.70
7530;DHT22;3806;52.270;10.544;2022-08-19T14:16:16;29.10;66.50
7530;DHT22;3806;52.270;10.544;2022-08-19T14:18:42;29.10;66.80
7530;DHT22;3806;52.270;10.544;2022-08-19T14:21:15;29.10;66.90
7530;DHT22;3806;52.270;10.544;2022-08-19T14:23:41;29.10;66.80
7530;DHT22;3806;52.270;10.544;2022-08-19T14:26:09;29.10;66.50
7530;DHT22;3806;52.270;10.544;2022-08-19T14:28:35;29.10;66.50
7530;DHT22;3806;52.270;10.544;2022-08-19T14:31:00;29.10;66.70
7530;DHT22;3806;52.270;10.544;2022-08-19T14:33:26;29.10;66.80
7530;DHT22;3806;52.270;10.544;2022-08-19T14:35:52;29.10;66.80
7530;DHT22;3806;52.270;10.544;2022-08-19T14:38:18;29.10;66.90
7530;DHT22;3806;52.270;10.544;2022-08-19T14:40:44;29.10;66.80
7530;DHT22;3806;52.270;10.544;2022-08-19T14:43:11;29.00;66.30
7530;DHT22;3806;52.270;10.544;2022-08-19T14:45:38;28.90;66.20
7530;DHT22;3806;52.270;10.544;2022-08-19T14:48:05;28.80;66.30
7530;DHT22;3806;52.270;10.544;2022-08-19T14:50:31;28.70;66.60
7530;DHT22;3806;52.270;10.544;2022-08-19T14:52:59;28.70;66.90
7530;DHT22;3806;52.270;10.544;2022-08-19T14:55:25;28.50;66.40
7530;DHT22;3806;52.270;10.544;2022-08-19T14:57:51;28.50;67.20
7530;DHT22;3806;52.270;10.544;2022-08-19T15:00:16;28.40;67.90
7530;DHT22;3806;52.270;10.544;2022-08-19T15:02:42;28.30;68.10
7530;DHT22;3806;52.270;10.544;2022-08-19T15:05:11;28.20;68.30
7530;DHT22;3806;52.270;10.544;2022-08-19T15:07:38;28.10;68.00
7530;DHT22;3806;52.270;10.544;2022-08-19T15:10:06;28.00;68.00
7530;DHT22;3806;52.270;10.544;2022-08-19T15:12:34;27.90;68.10
7530;DHT22;3806;52.270;10.544;2022-08-19T15:15:00;27.90;68.30
7530;DHT22;3806;52.270;10.544;2022-08-19T15:17:26;27.80;68.00
7530;DHT22;3806;52.270;10.544;2022-08-19T15:19:52;27.70;68.30
7530;DHT22;3806;52.270;10.544;2022-08-19T15:22:17;27.70;68.50
7530;DHT22;3806;52.270;10.544;2022-08-19T15:24:43;27.70;68.60
7530;DHT22;3806;52.270;10.544;2022-08-19T15:27:13;27.70;68.60
7530;DHT22;3806;52.270;10.544;2022-08-19T15:29:39;27.70;69.00
7530;DHT22;3806;52.270;10.544;2022-08-19T15:32:06;27.70;68.90
7530;DHT22;3806;52.270;10.544;2022-08-19T15:34:32;27.60;69.10
7530;DHT22;3806;52.270;10.544;2022-08-19T15:36:58;27.60;69.40
7530;DHT22;3806;52.270;10.544;2022-08-19T15:39:25;27.60;69.80
7530;DHT22;3806;52.270;10.544;2022-08-19T15:41:50;27.50;69.90
7530;DHT22;3806;52.270;10.544;2022-08-19T15:44:18;27.40;70.10
7530;DHT22;3806;52.270;10.544;2022-08-19T15:46:47;27.40;70.50
7530;DHT22;3806;52.270;10.544;2022-08-19T15:49:16;27.40;70.70
7530;DHT22;3806;52.270;10.544;2022-08-19T15:51:44;27.40;71.10
7530;DHT22;3806;52.270;10.544;2022-08-19T15:54:13;27.40;70.90
7530;DHT22;3806;52.270;10.544;2022-08-19T15:56:40;27.40;71.10